This is the latest recevied weather packets stored in our database for station/object GW1482. If no packets are shown the sender has not sent any weather packets the latest 10 day(s).
| Time | Temp. | Humidity | Pressure | Rain* | Wind** | Luminosity | Snow |
|---|---|---|---|---|---|---|---|
| 1777843670 | 13.33° C | 37% | 1001 hPa | 0 mm | - | - | - |
| 1777842943 | 14.44° C | 34% | 1001 hPa | 0 mm | - | - | - |
| 1777840754 | 13.89° C | 37% | 1001.3 hPa | 0 mm | - | - | - |
| 1777837175 | 12.22° C | 35% | 1002 hPa | 0 mm | - | - | - |
| 1777829958 | 10° C | 40% | 1003.3 hPa | 0 mm | - | - | - |
| 1777828175 | 10.56° C | 41% | 1003.7 hPa | 0 mm | - | - | - |
| 1777826371 | 9.44° C | 46% | 1003.7 hPa | 0 mm | - | - | - |
| 1777825640 | 8.89° C | 47% | 1003.7 hPa | 0 mm | - | - | - |
| 1777821317 | 6.11° C | 50% | 1004.4 hPa | 0 mm | - | - | - |
| 1777819884 | 6.11° C | 54% | 1004.4 hPa | 0 mm | - | - | - |
| 1777819548 | 5.56° C | 55% | 1004.4 hPa | 0 mm | - | - | - |
| 1777819152 | 5.56° C | 56% | 1004.4 hPa | 0 mm | - | - | - |
| 1777816650 | 4.44° C | 63% | 1004.4 hPa | 0 mm | - | - | - |
| 1777815222 | 3.33° C | 72% | 1004 hPa | 0 mm | - | - | - |
| 1777814854 | 3.33° C | 73% | 1004.4 hPa | 0 mm | - | - | - |
| 1777813793 | 2.78° C | 76% | 1004 hPa | 0 mm | - | - | - |
| 1777811612 | 0.56° C | 92% | 1004 hPa | 0 mm | - | - | - |
| 1777809831 | 0° C | 96% | 1003.7 hPa | 0 mm | - | - | - |
| 1777808728 | -0.56° C | 96% | 1003.7 hPa | 0 mm | - | - | - |
| 1777807657 | -1.11° C | 97% | 1003.3 hPa | 0 mm | - | - | - |
| 1777800431 | -1.11° C | 93% | 1002 hPa | 0 mm | - | - | - |
| 1777798306 | -0.56° C | 92% | 1001.6 hPa | 0 mm | - | - | - |
| 1777796837 | -0.56° C | 91% | 1001.6 hPa | 0 mm | - | - | - |
| 1777795789 | 0° C | 90% | 1001.6 hPa | 0 mm | - | - | - |
| 1777786760 | 2.22° C | 80% | 1001.3 hPa | 0 mm | - | - | - |
* Rain since midnight (hover to see other rain measurements)
** Current wind speed in m/s (hover to see current wind gust speed)